sensor_id;sensor_type;location;lat;lon;timestamp;pressure;altitude;pressure_sealevel;temperature;humidity
41515;BME280;27247;48.020;16.720;2023-02-15T00:03:50;101638.06;;;0.35;91.25
41515;BME280;27247;48.020;16.720;2023-02-15T00:08:00;101641.63;;;0.34;91.96
41515;BME280;27247;48.020;16.720;2023-02-15T00:12:11;101635.72;;;0.28;91.91
41515;BME280;27247;48.020;16.720;2023-02-15T00:16:21;101632.09;;;0.31;92.50
41515;BME280;27247;48.020;16.720;2023-02-15T00:20:32;101629.94;;;0.41;92.86
41515;BME280;27247;48.020;16.720;2023-02-15T00:24:42;101626.56;;;0.37;92.05
41515;BME280;27247;48.020;16.720;2023-02-15T00:28:55;101630.78;;;0.41;91.35
41515;BME280;27247;48.020;16.720;2023-02-15T00:33:05;101622.44;;;0.31;91.06
41515;BME280;27247;48.020;16.720;2023-02-15T00:37:16;101626.84;;;0.31;90.47
41515;BME280;27247;48.020;16.720;2023-02-15T00:41:26;101628.94;;;0.23;89.02
41515;BME280;27247;48.020;16.720;2023-02-15T00:45:36;101625.53;;;-0.01;88.61
41515;BME280;27247;48.020;16.720;2023-02-15T00:49:47;101627.84;;;-0.14;89.10
41515;BME280;27247;48.020;16.720;2023-02-15T00:53:57;101624.47;;;-0.17;88.99
41515;BME280;27247;48.020;16.720;2023-02-15T00:58:09;101619.09;;;-0.14;88.63
41515;BME280;27247;48.020;16.720;2023-02-15T01:02:19;101610.47;;;-0.18;88.06
41515;BME280;27247;48.020;16.720;2023-02-15T01:06:29;101616.09;;;-0.05;88.68
41515;BME280;27247;48.020;16.720;2023-02-15T01:10:40;101607.91;;;-0.19;89.09
41515;BME280;27247;48.020;16.720;2023-02-15T01:14:50;101601.53;;;-0.56;87.62
41515;BME280;27247;48.020;16.720;2023-02-15T01:19:01;101598.84;;;-0.54;87.41
41515;BME280;27247;48.020;16.720;2023-02-15T01:23:12;101588.91;;;-0.68;87.84
41515;BME280;27247;48.020;16.720;2023-02-15T01:27:23;101581.81;;;-0.66;88.32
41515;BME280;27247;48.020;16.720;2023-02-15T01:31:33;101585.59;;;-0.95;88.80
41515;BME280;27247;48.020;16.720;2023-02-15T01:35:47;101579.19;;;-0.88;87.86
41515;BME280;27247;48.020;16.720;2023-02-15T01:39:57;101580.72;;;-1.06;89.31
41515;BME280;27247;48.020;16.720;2023-02-15T01:49:18;101580.41;;;-1.20;90.89
41515;BME280;27247;48.020;16.720;2023-02-15T01:53:57;101576.75;;;-1.16;90.98
41515;BME280;27247;48.020;16.720;2023-02-15T01:58:09;101576.81;;;-1.17;91.63
41515;BME280;27247;48.020;16.720;2023-02-15T02:02:20;101566.81;;;-1.08;91.43
41515;BME280;27247;48.020;16.720;2023-02-15T02:06:36;101556.78;;;-1.20;90.95
41515;BME280;27247;48.020;16.720;2023-02-15T02:10:48;101556.63;;;-1.15;90.65
41515;BME280;27247;48.020;16.720;2023-02-15T02:14:58;101561.06;;;-1.17;91.26
41515;BME280;27247;48.020;16.720;2023-02-15T02:33:38;101552.47;;;-1.21;92.17
41515;BME280;27247;48.020;16.720;2023-02-15T02:38:15;101552.16;;;-1.13;92.52
41515;BME280;27247;48.020;16.720;2023-02-15T02:42:38;101538.66;;;-1.03;92.62
41515;BME280;27247;48.020;16.720;2023-02-15T02:46:57;101531.97;;;-0.88;93.01
41515;BME280;27247;48.020;16.720;2023-02-15T02:51:09;101538.63;;;-0.79;93.54
41515;BME280;27247;48.020;16.720;2023-02-15T02:55:30;101530.38;;;-0.70;92.72
41515;BME280;27247;48.020;16.720;2023-02-15T02:59:44;101528.50;;;-0.88;93.08
41515;BME280;27247;48.020;16.720;2023-02-15T03:03:59;101515.97;;;-0.82;93.50
41515;BME280;27247;48.020;16.720;2023-02-15T03:08:14;101520.13;;;-0.98;93.71
41515;BME280;27247;48.020;16.720;2023-02-15T03:12:37;101514.94;;;-0.78;94.49
41515;BME280;27247;48.020;16.720;2023-02-15T03:16:51;101520.72;;;-0.70;94.98
41515;BME280;27247;48.020;16.720;2023-02-15T03:21:02;101524.97;;;-0.45;94.18
41515;BME280;27247;48.020;16.720;2023-02-15T03:25:22;101518.66;;;-0.61;95.22
41515;BME280;27247;48.020;16.720;2023-02-15T03:29:35;101530.34;;;-0.48;95.98
41515;BME280;27247;48.020;16.720;2023-02-15T03:33:53;101530.50;;;-0.31;94.16
41515;BME280;27247;48.020;16.720;2023-02-15T03:38:06;101527.72;;;-0.48;94.89
41515;BME280;27247;48.020;16.720;2023-02-15T03:42:31;101522.88;;;-0.37;95.04
41515;BME280;27247;48.020;16.720;2023-02-15T03:46:56;101527.72;;;-0.48;93.67
41515;BME280;27247;48.020;16.720;2023-02-15T03:51:12;101538.09;;;-0.45;93.89
41515;BME280;27247;48.020;16.720;2023-02-15T03:55:49;101525.41;;;-0.56;94.89
41515;BME280;27247;48.020;16.720;2023-02-15T04:00:26;101532.19;;;-0.50;93.64
41515;BME280;27247;48.020;16.720;2023-02-15T04:04:54;101531.47;;;-0.76;93.31
41515;BME280;27247;48.020;16.720;2023-02-15T04:09:05;101526.28;;;-0.77;93.63
41515;BME280;27247;48.020;16.720;2023-02-15T04:13:34;101540.38;;;-0.80;93.95
41515;BME280;27247;48.020;16.720;2023-02-15T04:17:44;101531.41;;;-0.96;92.50
41515;BME280;27247;48.020;16.720;2023-02-15T04:21:54;101531.88;;;-1.08;92.49
41515;BME280;27247;48.020;16.720;2023-02-15T04:26:23;101531.72;;;-1.27;92.36
41515;BME280;27247;48.020;16.720;2023-02-15T04:30:34;101530.53;;;-1.42;93.58
41515;BME280;27247;48.020;16.720;2023-02-15T04:34:44;101524.91;;;-1.54;94.32
41515;BME280;27247;48.020;16.720;2023-02-15T04:38:54;101526.50;;;-1.50;95.05
41515;BME280;27247;48.020;16.720;2023-02-15T04:43:05;101527.22;;;-1.47;96.12
41515;BME280;27247;48.020;16.720;2023-02-15T04:47:15;101525.22;;;-1.40;96.91
41515;BME280;27247;48.020;16.720;2023-02-15T04:51:25;101527.88;;;-1.18;97.49
41515;BME280;27247;48.020;16.720;2023-02-15T04:55:36;101525.66;;;-1.06;97.27
41515;BME280;27247;48.020;16.720;2023-02-15T04:59:46;101516.06;;;-1.07;97.29
41515;BME280;27247;48.020;16.720;2023-02-15T05:03:56;101520.63;;;-0.88;96.69
41515;BME280;27247;48.020;16.720;2023-02-15T05:08:07;101527.31;;;-0.81;95.94
41515;BME280;27247;48.020;16.720;2023-02-15T05:12:17;101528.25;;;-0.82;96.43
41515;BME280;27247;48.020;16.720;2023-02-15T05:16:27;101523.59;;;-0.76;95.79
41515;BME280;27247;48.020;16.720;2023-02-15T05:20:38;101528.28;;;-0.62;96.34
41515;BME280;27247;48.020;16.720;2023-02-15T05:24:48;101536.75;;;-0.55;96.59
41515;BME280;27247;48.020;16.720;2023-02-15T05:29:17;101531.84;;;-0.43;97.52
41515;BME280;27247;48.020;16.720;2023-02-15T05:33:27;101533.50;;;-0.20;96.99
41515;BME280;27247;48.020;16.720;2023-02-15T05:37:38;101536.16;;;-0.20;96.58
41515;BME280;27247;48.020;16.720;2023-02-15T05:41:48;101541.94;;;-0.12;95.96
41515;BME280;27247;48.020;16.720;2023-02-15T05:45:59;101543.63;;;-0.11;95.94
41515;BME280;27247;48.020;16.720;2023-02-15T05:50:10;101552.09;;;-0.04;96.71
41515;BME280;27247;48.020;16.720;2023-02-15T05:54:21;101546.63;;;0.02;96.67
41515;BME280;27247;48.020;16.720;2023-02-15T05:58:34;101548.25;;;0.05;96.33
41515;BME280;27247;48.020;16.720;2023-02-15T06:02:45;101548.47;;;0.00;96.00
41515;BME280;27247;48.020;16.720;2023-02-15T06:06:55;101540.81;;;0.14;95.75
41515;BME280;27247;48.020;16.720;2023-02-15T06:11:05;101541.69;;;0.15;96.20
41515;BME280;27247;48.020;16.720;2023-02-15T06:15:16;101541.63;;;0.16;96.36
41515;BME280;27247;48.020;16.720;2023-02-15T06:19:26;101541.47;;;0.19;95.83
41515;BME280;27247;48.020;16.720;2023-02-15T06:23:37;101551.31;;;0.35;95.06
41515;BME280;27247;48.020;16.720;2023-02-15T06:27:47;101549.16;;;0.24;95.01
41515;BME280;27247;48.020;16.720;2023-02-15T06:31:59;101560.22;;;0.12;95.76
41515;BME280;27247;48.020;16.720;2023-02-15T06:36:09;101561.91;;;0.13;96.39
41515;BME280;27247;48.020;16.720;2023-02-15T06:40:20;101563.16;;;0.24;97.43
41515;BME280;27247;48.020;16.720;2023-02-15T06:44:30;101548.41;;;0.41;97.79
41515;BME280;27247;48.020;16.720;2023-02-15T06:48:41;101552.97;;;0.37;96.91
41515;BME280;27247;48.020;16.720;2023-02-15T06:52:56;101553.75;;;0.39;97.00
41515;BME280;27247;48.020;16.720;2023-02-15T06:57:06;101545.94;;;0.56;97.85
41515;BME280;27247;48.020;16.720;2023-02-15T07:01:17;101544.03;;;0.60;97.55
41515;BME280;27247;48.020;16.720;2023-02-15T07:05:28;101545.16;;;0.73;97.43
41515;BME280;27247;48.020;16.720;2023-02-15T07:09:41;101549.72;;;0.88;95.75
41515;BME280;27247;48.020;16.720;2023-02-15T07:13:52;101545.31;;;0.89;95.93
41515;BME280;27247;48.020;16.720;2023-02-15T07:18:02;101545.16;;;0.92;95.94
41515;BME280;27247;48.020;16.720;2023-02-15T07:22:13;101550.06;;;1.00;96.29
41515;BME280;27247;48.020;16.720;2023-02-15T07:26:23;101547.19;;;1.06;96.40
41515;BME280;27247;48.020;16.720;2023-02-15T07:30:34;101545.50;;;1.03;95.97
41515;BME280;27247;48.020;16.720;2023-02-15T07:34:45;101537.91;;;1.16;95.76
41515;BME280;27247;48.020;16.720;2023-02-15T07:38:56;101536.72;;;1.40;92.89
41515;BME280;27247;48.020;16.720;2023-02-15T07:43:06;101530.69;;;1.55;92.71
41515;BME280;27247;48.020;16.720;2023-02-15T07:47:16;101530.53;;;1.58;92.43
41515;BME280;27247;48.020;16.720;2023-02-15T07:51:27;101535.91;;;1.74;92.00
41515;BME280;27247;48.020;16.720;2023-02-15T07:55:37;101536.97;;;1.87;91.21
41515;BME280;27247;48.020;16.720;2023-02-15T07:59:47;101528.91;;;1.90;90.70
41515;BME280;27247;48.020;16.720;2023-02-15T08:03:58;101530.00;;;2.04;90.34
41515;BME280;27247;48.020;16.720;2023-02-15T08:08:10;101536.59;;;2.12;90.43
41515;BME280;27247;48.020;16.720;2023-02-15T08:12:39;101529.66;;;2.27;90.24
41515;BME280;27247;48.020;16.720;2023-02-15T08:16:51;101528.69;;;2.45;88.87
41515;BME280;27247;48.020;16.720;2023-02-15T08:21:09;101534.50;;;2.52;88.31
41515;BME280;27247;48.020;16.720;2023-02-15T08:25:19;101534.25;;;2.56;88.86
41515;BME280;27247;48.020;16.720;2023-02-15T08:29:30;101536.97;;;2.55;88.96
41515;BME280;27247;48.020;16.720;2023-02-15T08:33:42;101538.06;;;2.51;89.20
41515;BME280;27247;48.020;16.720;2023-02-15T08:37:53;101539.03;;;2.66;88.84
41515;BME280;27247;48.020;16.720;2023-02-15T08:42:03;101525.81;;;2.66;88.30
41515;BME280;27247;48.020;16.720;2023-02-15T08:46:15;101533.22;;;2.59;88.97
41515;BME280;27247;48.020;16.720;2023-02-15T08:50:26;101536.13;;;2.70;88.51
41515;BME280;27247;48.020;16.720;2023-02-15T08:54:37;101530.00;;;2.70;88.47
41515;BME280;27247;48.020;16.720;2023-02-15T08:58:48;101523.97;;;2.83;88.77
41515;BME280;27247;48.020;16.720;2023-02-15T09:02:58;101516.66;;;2.88;88.27
41515;BME280;27247;48.020;16.720;2023-02-15T09:07:09;101514.94;;;2.87;88.29
41515;BME280;27247;48.020;16.720;2023-02-15T09:11:29;101516.91;;;2.84;88.94
41515;BME280;27247;48.020;16.720;2023-02-15T09:15:41;101523.13;;;2.99;88.33
41515;BME280;27247;48.020;16.720;2023-02-15T09:19:52;101523.53;;;3.07;88.89
41515;BME280;27247;48.020;16.720;2023-02-15T09:24:05;101526.34;;;2.88;88.97
41515;BME280;27247;48.020;16.720;2023-02-15T09:28:16;101522.09;;;2.85;87.95
41515;BME280;27247;48.020;16.720;2023-02-15T09:32:26;101507.44;;;2.96;88.27
41515;BME280;27247;48.020;16.720;2023-02-15T09:36:38;101521.06;;;2.88;90.80
41515;BME280;27247;48.020;16.720;2023-02-15T09:41:08;101516.63;;;2.73;92.57
41515;BME280;27247;48.020;16.720;2023-02-15T09:45:46;101515.59;;;2.60;94.31
41515;BME280;27247;48.020;16.720;2023-02-15T09:55:09;101509.66;;;2.72;92.03
41515;BME280;27247;48.020;16.720;2023-02-15T09:59:35;101497.47;;;2.69;91.26
41515;BME280;27247;48.020;16.720;2023-02-15T10:04:24;101501.56;;;2.75;92.68
41515;BME280;27247;48.020;16.720;2023-02-15T10:22:05;101493.91;;;3.02;92.47
41515;BME280;27247;48.020;16.720;2023-02-15T10:26:30;101493.72;;;3.05;91.81
41515;BME280;27247;48.020;16.720;2023-02-15T10:30:56;101492.38;;;3.13;92.18
41515;BME280;27247;48.020;16.720;2023-02-15T10:44:29;101473.47;;;3.51;87.56
41515;BME280;27247;48.020;16.720;2023-02-15T10:49:03;101474.53;;;3.63;87.39
41515;BME280;27247;48.020;16.720;2023-02-15T10:53:29;101469.91;;;3.66;86.15
41515;BME280;27247;48.020;16.720;2023-02-15T11:02:31;101453.88;;;3.69;86.04
41515;BME280;27247;48.020;16.720;2023-02-15T11:06:53;101459.72;;;3.60;86.32
41515;BME280;27247;48.020;16.720;2023-02-15T11:11:09;101450.34;;;3.55;85.80
41515;BME280;27247;48.020;16.720;2023-02-15T11:19:59;101436.88;;;3.73;84.32
41515;BME280;27247;48.020;16.720;2023-02-15T11:24:14;101427.53;;;3.82;84.57
41515;BME280;27247;48.020;16.720;2023-02-15T11:33:01;101421.09;;;3.58;84.66
41515;BME280;27247;48.020;16.720;2023-02-15T11:37:18;101420.47;;;3.82;85.10
41515;BME280;27247;48.020;16.720;2023-02-15T11:41:34;101414.03;;;3.87;84.73
41515;BME280;27247;48.020;16.720;2023-02-15T11:45:47;101419.16;;;4.04;83.39
41515;BME280;27247;48.020;16.720;2023-02-15T11:49:59;101417.63;;;3.85;84.71
41515;BME280;27247;48.020;16.720;2023-02-15T11:54:10;101425.25;;;3.62;86.13
41515;BME280;27247;48.020;16.720;2023-02-15T11:58:39;101420.63;;;3.51;86.43
41515;BME280;27247;48.020;16.720;2023-02-15T12:02:53;101417.78;;;3.54;86.73
41515;BME280;27247;48.020;16.720;2023-02-15T12:07:15;101409.50;;;3.74;85.85
41515;BME280;27247;48.020;16.720;2023-02-15T12:11:37;101411.56;;;3.55;86.23
41515;BME280;27247;48.020;16.720;2023-02-15T12:15:53;101400.91;;;3.71;85.90
41515;BME280;27247;48.020;16.720;2023-02-15T12:20:25;101410.03;;;3.51;86.23
41515;BME280;27247;48.020;16.720;2023-02-15T12:24:44;101408.25;;;3.51;86.30
41515;BME280;27247;48.020;16.720;2023-02-15T12:28:59;101401.66;;;3.73;86.13
41515;BME280;27247;48.020;16.720;2023-02-15T12:33:41;101400.06;;;3.70;86.00
41515;BME280;27247;48.020;16.720;2023-02-15T12:38:19;101395.44;;;3.60;86.20
41515;BME280;27247;48.020;16.720;2023-02-15T12:42:44;101391.84;;;3.61;86.16
41515;BME280;27247;48.020;16.720;2023-02-15T12:51:12;101377.78;;;3.74;85.62
41515;BME280;27247;48.020;16.720;2023-02-15T12:55:26;101369.56;;;3.65;86.84
41515;BME280;27247;48.020;16.720;2023-02-15T13:00:12;101372.00;;;3.53;85.94
41515;BME280;27247;48.020;16.720;2023-02-15T13:04:34;101360.97;;;3.47;87.56
41515;BME280;27247;48.020;16.720;2023-02-15T13:08:50;101362.38;;;3.52;87.29
41515;BME280;27247;48.020;16.720;2023-02-15T13:13:09;101359.19;;;3.76;87.27
41515;BME280;27247;48.020;16.720;2023-02-15T13:17:25;101344.72;;;3.81;87.04
41515;BME280;27247;48.020;16.720;2023-02-15T13:21:41;101337.91;;;4.06;86.76
41515;BME280;27247;48.020;16.720;2023-02-15T13:25:55;101338.09;;;4.17;86.20
41515;BME280;27247;48.020;16.720;2023-02-15T13:34:35;101334.22;;;4.23;85.40
41515;BME280;27247;48.020;16.720;2023-02-15T13:39:15;101335.53;;;4.30;85.22
41515;BME280;27247;48.020;16.720;2023-02-15T13:43:39;101329.78;;;4.23;88.07
41515;BME280;27247;48.020;16.720;2023-02-15T13:48:04;101329.22;;;4.04;89.94
41515;BME280;27247;48.020;16.720;2023-02-15T13:52:27;101323.50;;;3.83;90.03
41515;BME280;27247;48.020;16.720;2023-02-15T14:18:51;101324.81;;;3.76;90.90
41515;BME280;27247;48.020;16.720;2023-02-15T14:27:52;101330.00;;;3.63;92.87
41515;BME280;27247;48.020;16.720;2023-02-15T14:32:11;101315.75;;;3.51;93.75
41515;BME280;27247;48.020;16.720;2023-02-15T14:36:23;101310.47;;;3.51;94.18
41515;BME280;27247;48.020;16.720;2023-02-15T14:41:01;101303.00;;;3.44;94.30
41515;BME280;27247;48.020;16.720;2023-02-15T14:45:35;101305.47;;;3.47;94.28
41515;BME280;27247;48.020;16.720;2023-02-15T14:49:52;101308.59;;;3.53;94.33
41515;BME280;27247;48.020;16.720;2023-02-15T14:54:03;101291.97;;;3.66;93.89
41515;BME280;27247;48.020;16.720;2023-02-15T14:58:13;101289.88;;;3.71;93.33
41515;BME280;27247;48.020;16.720;2023-02-15T15:02:29;101282.63;;;3.74;93.56
41515;BME280;27247;48.020;16.720;2023-02-15T15:07:00;101280.81;;;3.75;93.28
41515;BME280;27247;48.020;16.720;2023-02-15T15:15:45;101285.28;;;3.60;94.54
41515;BME280;27247;48.020;16.720;2023-02-15T15:33:15;101268.38;;;3.20;95.47
41515;BME280;27247;48.020;16.720;2023-02-15T15:50:53;101261.97;;;2.80;96.84
41515;BME280;27247;48.020;16.720;2023-02-15T15:55:15;101257.41;;;2.68;97.49
41515;BME280;27247;48.020;16.720;2023-02-15T15:59:28;101258.72;;;2.61;97.66
41515;BME280;27247;48.020;16.720;2023-02-15T16:03:49;101260.09;;;2.52;98.27
41515;BME280;27247;48.020;16.720;2023-02-15T16:08:01;101259.53;;;2.47;97.92
41515;BME280;27247;48.020;16.720;2023-02-15T16:12:15;101264.66;;;2.34;97.84
41515;BME280;27247;48.020;16.720;2023-02-15T16:16:28;101272.81;;;2.30;98.19
41515;BME280;27247;48.020;16.720;2023-02-15T16:20:39;101269.84;;;2.36;97.99
41515;BME280;27247;48.020;16.720;2023-02-15T16:29:31;101255.75;;;2.21;96.02
41515;BME280;27247;48.020;16.720;2023-02-15T16:33:42;101260.59;;;2.13;95.86
41515;BME280;27247;48.020;16.720;2023-02-15T16:37:53;101259.97;;;2.08;96.75
41515;BME280;27247;48.020;16.720;2023-02-15T16:42:03;101256.31;;;1.95;97.05
41515;BME280;27247;48.020;16.720;2023-02-15T16:46:29;101255.06;;;1.86;98.16
41515;BME280;27247;48.020;16.720;2023-02-15T16:50:47;101252.59;;;1.83;99.36
41515;BME280;27247;48.020;16.720;2023-02-15T16:55:28;101254.97;;;1.72;99.82
41515;BME280;27247;48.020;16.720;2023-02-15T16:59:41;101248.34;;;1.65;99.97
41515;BME280;27247;48.020;16.720;2023-02-15T17:04:23;101258.94;;;1.47;99.69
41515;BME280;27247;48.020;16.720;2023-02-15T17:08:45;101250.09;;;1.48;100.00
41515;BME280;27247;48.020;16.720;2023-02-15T17:13:09;101259.53;;;1.52;100.00
41515;BME280;27247;48.020;16.720;2023-02-15T17:17:21;101262.25;;;1.51;96.80
41515;BME280;27247;48.020;16.720;2023-02-15T17:21:35;101253.84;;;1.44;96.82
41515;BME280;27247;48.020;16.720;2023-02-15T17:25:50;101261.97;;;1.40;98.13
41515;BME280;27247;48.020;16.720;2023-02-15T17:30:13;101257.47;;;1.42;98.02
41515;BME280;27247;48.020;16.720;2023-02-15T17:34:50;101261.47;;;1.33;99.02
41515;BME280;27247;48.020;16.720;2023-02-15T17:39:20;101256.34;;;1.30;98.64
41515;BME280;27247;48.020;16.720;2023-02-15T17:43:31;101251.06;;;1.14;99.05
41515;BME280;27247;48.020;16.720;2023-02-15T17:47:42;101247.25;;;1.20;99.07
41515;BME280;27247;48.020;16.720;2023-02-15T17:51:53;101245.94;;;1.11;99.07
41515;BME280;27247;48.020;16.720;2023-02-15T17:56:06;101264.44;;;1.10;99.20
41515;BME280;27247;48.020;16.720;2023-02-15T18:00:20;101251.59;;;1.04;98.26
41515;BME280;27247;48.020;16.720;2023-02-15T18:04:49;101264.06;;;0.66;97.31
41515;BME280;27247;48.020;16.720;2023-02-15T18:09:20;101267.00;;;0.77;97.41
41515;BME280;27247;48.020;16.720;2023-02-15T18:13:49;101270.88;;;0.70;96.96
41515;BME280;27247;48.020;16.720;2023-02-15T18:18:02;101267.09;;;0.58;97.28
41515;BME280;27247;48.020;16.720;2023-02-15T18:22:17;101263.69;;;0.56;97.56
41515;BME280;27247;48.020;16.720;2023-02-15T18:26:29;101260.34;;;0.52;98.30
41515;BME280;27247;48.020;16.720;2023-02-15T18:30:40;101257.34;;;0.43;99.51
41515;BME280;27247;48.020;16.720;2023-02-15T18:34:56;101254.88;;;0.57;99.89
41515;BME280;27247;48.020;16.720;2023-02-15T18:39:41;101265.53;;;0.54;100.00
41515;BME280;27247;48.020;16.720;2023-02-15T18:43:55;101272.97;;;0.46;100.00
41515;BME280;27247;48.020;16.720;2023-02-15T18:48:06;101264.38;;;0.42;100.00
41515;BME280;27247;48.020;16.720;2023-02-15T18:52:23;101258.13;;;0.45;100.00
41515;BME280;27247;48.020;16.720;2023-02-15T18:56:37;101249.69;;;0.38;100.00
41515;BME280;27247;48.020;16.720;2023-02-15T19:00:48;101259.72;;;0.30;99.98
41515;BME280;27247;48.020;16.720;2023-02-15T19:05:00;101251.28;;;0.23;99.17
41515;BME280;27247;48.020;16.720;2023-02-15T19:09:19;101262.28;;;0.31;97.84
41515;BME280;27247;48.020;16.720;2023-02-15T19:13:31;101257.25;;;0.27;95.52
41515;BME280;27247;48.020;16.720;2023-02-15T19:17:42;101256.72;;;0.02;96.05
41515;BME280;27247;48.020;16.720;2023-02-15T19:21:53;101257.06;;;-0.06;97.06
41515;BME280;27247;48.020;16.720;2023-02-15T19:26:04;101246.91;;;-0.14;97.92
41515;BME280;27247;48.020;16.720;2023-02-15T19:30:22;101250.31;;;-0.12;97.90
41515;BME280;27247;48.020;16.720;2023-02-15T19:34:35;101245.41;;;-0.01;97.81
41515;BME280;27247;48.020;16.720;2023-02-15T19:38:48;101238.88;;;-0.11;94.67
41515;BME280;27247;48.020;16.720;2023-02-15T19:43:01;101244.38;;;-0.34;95.49
41515;BME280;27247;48.020;16.720;2023-02-15T19:47:14;101237.41;;;-0.35;96.48
41515;BME280;27247;48.020;16.720;2023-02-15T19:51:25;101235.38;;;-0.28;97.03
41515;BME280;27247;48.020;16.720;2023-02-15T19:55:37;101238.13;;;-0.32;96.86
41515;BME280;27247;48.020;16.720;2023-02-15T19:59:48;101241.75;;;-0.34;97.20
41515;BME280;27247;48.020;16.720;2023-02-15T20:03:59;101234.59;;;-0.49;97.84
41515;BME280;27247;48.020;16.720;2023-02-15T20:08:17;101230.47;;;-0.36;98.19
41515;BME280;27247;48.020;16.720;2023-02-15T20:12:28;101234.72;;;-0.34;98.54
41515;BME280;27247;48.020;16.720;2023-02-15T20:16:39;101238.91;;;-0.29;99.17
41515;BME280;27247;48.020;16.720;2023-02-15T20:20:53;101230.47;;;-0.36;100.00
41515;BME280;27247;48.020;16.720;2023-02-15T20:25:04;101222.81;;;-0.59;98.78
41515;BME280;27247;48.020;16.720;2023-02-15T20:29:19;101218.97;;;-0.52;99.31
41515;BME280;27247;48.020;16.720;2023-02-15T20:33:30;101229.53;;;-0.35;99.07
41515;BME280;27247;48.020;16.720;2023-02-15T20:37:43;101229.97;;;-0.44;98.92
41515;BME280;27247;48.020;16.720;2023-02-15T20:41:55;101234.44;;;-0.65;98.99
41515;BME280;27247;48.020;16.720;2023-02-15T20:46:06;101230.75;;;-0.80;98.35
41515;BME280;27247;48.020;16.720;2023-02-15T20:50:26;101237.91;;;-0.83;98.14
41515;BME280;27247;48.020;16.720;2023-02-15T20:54:37;101223.84;;;-0.82;97.73
41515;BME280;27247;48.020;16.720;2023-02-15T20:58:49;101229.88;;;-0.80;97.81
41515;BME280;27247;48.020;16.720;2023-02-15T21:03:00;101230.75;;;-0.80;95.92
41515;BME280;27247;48.020;16.720;2023-02-15T21:07:16;101234.13;;;-0.97;94.59
41515;BME280;27247;48.020;16.720;2023-02-15T21:11:27;101220.66;;;-1.09;94.66
41515;BME280;27247;48.020;16.720;2023-02-15T21:15:38;101219.09;;;-1.13;95.54
41515;BME280;27247;48.020;16.720;2023-02-15T21:19:49;101222.91;;;-1.00;95.91
41515;BME280;27247;48.020;16.720;2023-02-15T21:24:00;101227.31;;;-1.01;95.65
41515;BME280;27247;48.020;16.720;2023-02-15T21:28:16;101222.91;;;-1.00;96.28
41515;BME280;27247;48.020;16.720;2023-02-15T21:32:28;101218.38;;;-0.97;96.41
41515;BME280;27247;48.020;16.720;2023-02-15T21:36:40;101221.84;;;-0.96;96.39
41515;BME280;27247;48.020;16.720;2023-02-15T21:40:51;101212.72;;;-1.08;96.50
41515;BME280;27247;48.020;16.720;2023-02-15T21:45:12;101207.53;;;-1.09;95.77
41515;BME280;27247;48.020;16.720;2023-02-15T21:49:41;101199.94;;;-1.15;95.62
41515;BME280;27247;48.020;16.720;2023-02-15T21:53:52;101215.28;;;-1.06;95.34
41515;BME280;27247;48.020;16.720;2023-02-15T21:58:02;101213.31;;;-1.21;95.09
41515;BME280;27247;48.020;16.720;2023-02-15T22:06:34;101212.03;;;-1.32;95.92
41515;BME280;27247;48.020;16.720;2023-02-15T22:10:44;101213.53;;;-1.26;96.03
41515;BME280;27247;48.020;16.720;2023-02-15T22:14:57;101205.72;;;-1.27;95.19
41515;BME280;27247;48.020;16.720;2023-02-15T22:19:10;101212.03;;;-1.32;94.94
41515;BME280;27247;48.020;16.720;2023-02-15T22:23:21;101206.31;;;-1.41;93.90
41515;BME280;27247;48.020;16.720;2023-02-15T22:27:37;101209.94;;;-1.44;93.54
41515;BME280;27247;48.020;16.720;2023-02-15T22:31:48;101213.59;;;-1.68;93.13
41515;BME280;27247;48.020;16.720;2023-02-15T22:35:59;101215.41;;;-1.70;92.45
41515;BME280;27247;48.020;16.720;2023-02-15T22:40:13;101225.91;;;-1.70;92.82
41515;BME280;27247;48.020;16.720;2023-02-15T22:44:27;101218.97;;;-1.71;92.60
41515;BME280;27247;48.020;16.720;2023-02-15T22:48:38;101220.13;;;-1.78;92.13
41515;BME280;27247;48.020;16.720;2023-02-15T22:52:49;101220.91;;;-1.76;92.15
41515;BME280;27247;48.020;16.720;2023-02-15T22:57:00;101226.59;;;-1.87;92.03
41515;BME280;27247;48.020;16.720;2023-02-15T23:01:22;101221.97;;;-2.02;91.68
41515;BME280;27247;48.020;16.720;2023-02-15T23:05:33;101230.63;;;-2.00;91.15
41515;BME280;27247;48.020;16.720;2023-02-15T23:09:44;101219.84;;;-1.92;91.38
41515;BME280;27247;48.020;16.720;2023-02-15T23:13:55;101229.34;;;-1.90;90.90
41515;BME280;27247;48.020;16.720;2023-02-15T23:22:27;101215.44;;;-2.14;92.53
41515;BME280;27247;48.020;16.720;2023-02-15T23:26:38;101215.38;;;-2.12;93.68
41515;BME280;27247;48.020;16.720;2023-02-15T23:30:48;101219.03;;;-2.16;93.30
41515;BME280;27247;48.020;16.720;2023-02-15T23:34:59;101213.19;;;-2.23;93.02
41515;BME280;27247;48.020;16.720;2023-02-15T23:39:19;101213.69;;;-2.59;92.16
41515;BME280;27247;48.020;16.720;2023-02-15T23:43:57;101217.34;;;-2.63;92.32
41515;BME280;27247;48.020;16.720;2023-02-15T23:48:21;101210.06;;;-2.78;92.01
41515;BME280;27247;48.020;16.720;2023-02-15T23:52:41;101210.28;;;-2.84;92.53
41515;BME280;27247;48.020;16.720;2023-02-15T23:56:54;101200.41;;;-2.99;92.81
